sensor_id;sensor_type;location;lat;lon;timestamp;P1;durP1;ratioP1;P2;durP2;ratioP2
34481;SDS011;20720;48.886;9.388;2022-12-18T00:00:53;46.55;;;18.35;;
34481;SDS011;20720;48.886;9.388;2022-12-18T00:03:18;58.13;;;23.17;;
34481;SDS011;20720;48.886;9.388;2022-12-18T00:05:50;58.97;;;23.45;;
34481;SDS011;20720;48.886;9.388;2022-12-18T00:08:17;52.47;;;19.67;;
34481;SDS011;20720;48.886;9.388;2022-12-18T00:10:43;47.58;;;20.30;;
34481;SDS011;20720;48.886;9.388;2022-12-18T00:13:09;55.63;;;21.35;;
34481;SDS011;20720;48.886;9.388;2022-12-18T00:15:34;50.90;;;19.92;;
34481;SDS011;20720;48.886;9.388;2022-12-18T00:18:00;39.55;;;16.90;;
34481;SDS011;20720;48.886;9.388;2022-12-18T00:20:25;44.78;;;17.77;;
34481;SDS011;20720;48.886;9.388;2022-12-18T00:22:51;45.20;;;18.23;;
34481;SDS011;20720;48.886;9.388;2022-12-18T00:25:17;47.88;;;17.92;;
34481;SDS011;20720;48.886;9.388;2022-12-18T00:27:42;52.25;;;22.08;;
34481;SDS011;20720;48.886;9.388;2022-12-18T00:30:08;56.38;;;22.00;;
34481;SDS011;20720;48.886;9.388;2022-12-18T00:32:34;39.63;;;15.00;;
34481;SDS011;20720;48.886;9.388;2022-12-18T00:34:59;40.95;;;16.15;;
34481;SDS011;20720;48.886;9.388;2022-12-18T00:37:24;47.35;;;18.75;;
34481;SDS011;20720;48.886;9.388;2022-12-18T00:39:50;39.17;;;18.25;;
34481;SDS011;20720;48.886;9.388;2022-12-18T00:42:15;44.33;;;19.63;;
34481;SDS011;20720;48.886;9.388;2022-12-18T00:44:59;44.47;;;18.45;;
34481;SDS011;20720;48.886;9.388;2022-12-18T00:47:24;44.90;;;18.00;;
34481;SDS011;20720;48.886;9.388;2022-12-18T00:49:49;36.20;;;14.30;;
34481;SDS011;20720;48.886;9.388;2022-12-18T00:52:14;46.60;;;17.83;;
34481;SDS011;20720;48.886;9.388;2022-12-18T00:54:40;39.63;;;16.77;;
34481;SDS011;20720;48.886;9.388;2022-12-18T00:57:05;42.42;;;17.10;;
34481;SDS011;20720;48.886;9.388;2022-12-18T00:59:30;45.90;;;18.13;;
34481;SDS011;20720;48.886;9.388;2022-12-18T01:01:55;43.25;;;14.82;;
34481;SDS011;20720;48.886;9.388;2022-12-18T01:04:21;39.28;;;16.45;;
34481;SDS011;20720;48.886;9.388;2022-12-18T01:06:46;45.50;;;18.20;;
34481;SDS011;20720;48.886;9.388;2022-12-18T01:09:11;37.45;;;15.30;;
34481;SDS011;20720;48.886;9.388;2022-12-18T01:11:37;36.83;;;16.55;;
34481;SDS011;20720;48.886;9.388;2022-12-18T01:14:02;42.45;;;17.13;;
34481;SDS011;20720;48.886;9.388;2022-12-18T01:16:27;40.90;;;14.38;;
34481;SDS011;20720;48.886;9.388;2022-12-18T01:18:53;51.08;;;17.13;;
34481;SDS011;20720;48.886;9.388;2022-12-18T01:21:19;42.25;;;16.48;;
34481;SDS011;20720;48.886;9.388;2022-12-18T01:23:45;35.65;;;13.68;;
34481;SDS011;20720;48.886;9.388;2022-12-18T01:26:12;44.17;;;17.50;;
34481;SDS011;20720;48.886;9.388;2022-12-18T01:28:39;40.67;;;16.15;;
34481;SDS011;20720;48.886;9.388;2022-12-18T01:33:47;47.70;;;16.50;;
34481;SDS011;20720;48.886;9.388;2022-12-18T01:36:25;39.42;;;14.38;;
34481;SDS011;20720;48.886;9.388;2022-12-18T01:38:53;33.95;;;13.82;;
34481;SDS011;20720;48.886;9.388;2022-12-18T01:41:21;23.88;;;8.38;;
34481;SDS011;20720;48.886;9.388;2022-12-18T01:46:19;35.13;;;13.75;;
34481;SDS011;20720;48.886;9.388;2022-12-18T01:48:50;33.97;;;15.15;;
34481;SDS011;20720;48.886;9.388;2022-12-18T01:51:18;31.90;;;14.07;;
34481;SDS011;20720;48.886;9.388;2022-12-18T01:53:44;28.63;;;12.50;;
34481;SDS011;20720;48.886;9.388;2022-12-18T01:56:12;37.88;;;15.85;;
34481;SDS011;20720;48.886;9.388;2022-12-18T02:01:27;39.15;;;14.05;;
34481;SDS011;20720;48.886;9.388;2022-12-18T02:03:55;28.05;;;11.43;;
34481;SDS011;20720;48.886;9.388;2022-12-18T02:06:22;36.78;;;15.82;;
34481;SDS011;20720;48.886;9.388;2022-12-18T02:08:58;32.42;;;13.30;;
34481;SDS011;20720;48.886;9.388;2022-12-18T02:15:09;32.58;;;13.02;;
34481;SDS011;20720;48.886;9.388;2022-12-18T02:24:15;27.10;;;10.73;;
34481;SDS011;20720;48.886;9.388;2022-12-18T02:26:21;23.48;;;8.93;;
34481;SDS011;20720;48.886;9.388;2022-12-18T02:33:53;26.33;;;9.73;;
34481;SDS011;20720;48.886;9.388;2022-12-18T02:36:21;27.35;;;10.10;;
34481;SDS011;20720;48.886;9.388;2022-12-18T02:38:49;37.85;;;14.65;;
34481;SDS011;20720;48.886;9.388;2022-12-18T02:41:15;37.22;;;15.15;;
34481;SDS011;20720;48.886;9.388;2022-12-18T02:43:46;29.13;;;14.38;;
34481;SDS011;20720;48.886;9.388;2022-12-18T02:46:24;32.45;;;12.95;;
34481;SDS011;20720;48.886;9.388;2022-12-18T02:48:50;35.95;;;14.23;;
34481;SDS011;20720;48.886;9.388;2022-12-18T02:53:58;35.63;;;14.10;;
34481;SDS011;20720;48.886;9.388;2022-12-18T02:56:47;30.52;;;11.75;;
34481;SDS011;20720;48.886;9.388;2022-12-18T02:59:21;33.60;;;12.98;;
34481;SDS011;20720;48.886;9.388;2022-12-18T03:02:02;34.38;;;14.68;;
34481;SDS011;20720;48.886;9.388;2022-12-18T03:04:38;31.42;;;13.32;;
34481;SDS011;20720;48.886;9.388;2022-12-18T03:07:11;32.70;;;12.63;;
34481;SDS011;20720;48.886;9.388;2022-12-18T03:12:15;27.85;;;9.80;;
34481;SDS011;20720;48.886;9.388;2022-12-18T03:14:49;29.20;;;11.25;;
34481;SDS011;20720;48.886;9.388;2022-12-18T03:17:19;27.50;;;11.60;;
34481;SDS011;20720;48.886;9.388;2022-12-18T03:19:47;28.92;;;10.98;;
34481;SDS011;20720;48.886;9.388;2022-12-18T03:22:14;28.10;;;11.65;;
34481;SDS011;20720;48.886;9.388;2022-12-18T03:24:41;30.02;;;11.73;;
34481;SDS011;20720;48.886;9.388;2022-12-18T03:27:08;34.35;;;14.13;;
34481;SDS011;20720;48.886;9.388;2022-12-18T03:29:44;27.77;;;12.60;;
34481;SDS011;20720;48.886;9.388;2022-12-18T03:32:19;27.80;;;12.00;;
34481;SDS011;20720;48.886;9.388;2022-12-18T03:34:50;33.42;;;14.15;;
34481;SDS011;20720;48.886;9.388;2022-12-18T03:37:20;34.10;;;13.95;;
34481;SDS011;20720;48.886;9.388;2022-12-18T03:39:45;28.45;;;11.38;;
34481;SDS011;20720;48.886;9.388;2022-12-18T03:42:14;31.85;;;12.48;;
34481;SDS011;20720;48.886;9.388;2022-12-18T03:44:51;29.08;;;11.40;;
34481;SDS011;20720;48.886;9.388;2022-12-18T03:47:27;30.63;;;12.80;;
34481;SDS011;20720;48.886;9.388;2022-12-18T03:53:11;30.60;;;12.75;;
34481;SDS011;20720;48.886;9.388;2022-12-18T03:55:54;29.08;;;11.73;;
34481;SDS011;20720;48.886;9.388;2022-12-18T03:58:25;28.50;;;11.70;;
34481;SDS011;20720;48.886;9.388;2022-12-18T04:00:52;19.42;;;9.10;;
34481;SDS011;20720;48.886;9.388;2022-12-18T04:03:21;23.75;;;9.93;;
34481;SDS011;20720;48.886;9.388;2022-12-18T04:05:49;32.75;;;12.35;;
34481;SDS011;20720;48.886;9.388;2022-12-18T04:08:16;31.77;;;13.05;;
34481;SDS011;20720;48.886;9.388;2022-12-18T04:10:42;31.63;;;12.85;;
34481;SDS011;20720;48.886;9.388;2022-12-18T04:13:08;26.42;;;10.43;;
34481;SDS011;20720;48.886;9.388;2022-12-18T04:15:34;28.52;;;10.70;;
34481;SDS011;20720;48.886;9.388;2022-12-18T04:18:01;35.25;;;13.82;;
34481;SDS011;20720;48.886;9.388;2022-12-18T04:20:27;25.88;;;11.27;;
34481;SDS011;20720;48.886;9.388;2022-12-18T04:22:52;36.05;;;13.90;;
34481;SDS011;20720;48.886;9.388;2022-12-18T04:25:18;40.33;;;16.92;;
34481;SDS011;20720;48.886;9.388;2022-12-18T04:27:43;39.10;;;15.95;;
34481;SDS011;20720;48.886;9.388;2022-12-18T04:30:08;38.70;;;14.85;;
34481;SDS011;20720;48.886;9.388;2022-12-18T04:32:34;30.50;;;12.88;;
34481;SDS011;20720;48.886;9.388;2022-12-18T04:35:00;28.23;;;12.38;;
34481;SDS011;20720;48.886;9.388;2022-12-18T04:37:25;31.55;;;13.70;;
34481;SDS011;20720;48.886;9.388;2022-12-18T04:39:51;37.65;;;15.80;;
34481;SDS011;20720;48.886;9.388;2022-12-18T04:42:16;36.08;;;14.85;;
34481;SDS011;20720;48.886;9.388;2022-12-18T04:44:41;33.25;;;13.07;;
34481;SDS011;20720;48.886;9.388;2022-12-18T04:47:06;38.63;;;14.32;;
34481;SDS011;20720;48.886;9.388;2022-12-18T04:49:32;28.42;;;11.43;;
34481;SDS011;20720;48.886;9.388;2022-12-18T04:51:57;31.50;;;13.48;;
34481;SDS011;20720;48.886;9.388;2022-12-18T04:54:23;33.15;;;14.85;;
34481;SDS011;20720;48.886;9.388;2022-12-18T04:56:48;32.35;;;12.63;;
34481;SDS011;20720;48.886;9.388;2022-12-18T04:59:13;33.00;;;14.68;;
34481;SDS011;20720;48.886;9.388;2022-12-18T05:01:38;22.17;;;9.60;;
34481;SDS011;20720;48.886;9.388;2022-12-18T05:04:04;35.13;;;15.38;;
34481;SDS011;20720;48.886;9.388;2022-12-18T05:06:29;33.00;;;14.23;;
34481;SDS011;20720;48.886;9.388;2022-12-18T05:08:54;17.42;;;7.32;;
34481;SDS011;20720;48.886;9.388;2022-12-18T05:11:20;30.42;;;13.23;;
34481;SDS011;20720;48.886;9.388;2022-12-18T05:13:45;34.65;;;14.88;;
34481;SDS011;20720;48.886;9.388;2022-12-18T05:16:11;35.85;;;12.52;;
34481;SDS011;20720;48.886;9.388;2022-12-18T05:18:37;31.25;;;12.93;;
34481;SDS011;20720;48.886;9.388;2022-12-18T05:21:03;33.05;;;13.07;;
34481;SDS011;20720;48.886;9.388;2022-12-18T05:23:28;29.40;;;11.23;;
34481;SDS011;20720;48.886;9.388;2022-12-18T05:25:55;29.85;;;11.05;;
34481;SDS011;20720;48.886;9.388;2022-12-18T05:28:23;30.67;;;12.43;;
34481;SDS011;20720;48.886;9.388;2022-12-18T05:30:51;28.27;;;11.88;;
34481;SDS011;20720;48.886;9.388;2022-12-18T05:33:18;27.55;;;11.80;;
34481;SDS011;20720;48.886;9.388;2022-12-18T05:35:44;36.72;;;14.57;;
34481;SDS011;20720;48.886;9.388;2022-12-18T05:38:14;29.08;;;13.05;;
34481;SDS011;20720;48.886;9.388;2022-12-18T05:40:41;36.30;;;13.48;;
34481;SDS011;20720;48.886;9.388;2022-12-18T05:43:08;29.27;;;10.38;;
34481;SDS011;20720;48.886;9.388;2022-12-18T05:45:36;48.13;;;15.93;;
34481;SDS011;20720;48.886;9.388;2022-12-18T05:48:02;47.42;;;16.13;;
34481;SDS011;20720;48.886;9.388;2022-12-18T05:50:27;44.63;;;17.00;;
34481;SDS011;20720;48.886;9.388;2022-12-18T05:52:53;39.92;;;14.35;;
34481;SDS011;20720;48.886;9.388;2022-12-18T05:55:18;45.30;;;16.92;;
34481;SDS011;20720;48.886;9.388;2022-12-18T05:57:43;49.22;;;16.55;;
34481;SDS011;20720;48.886;9.388;2022-12-18T06:00:08;45.80;;;16.13;;
34481;SDS011;20720;48.886;9.388;2022-12-18T06:02:34;41.08;;;15.35;;
34481;SDS011;20720;48.886;9.388;2022-12-18T06:05:00;37.75;;;14.05;;
34481;SDS011;20720;48.886;9.388;2022-12-18T06:07:25;36.05;;;14.20;;
34481;SDS011;20720;48.886;9.388;2022-12-18T06:09:50;39.95;;;16.08;;
34481;SDS011;20720;48.886;9.388;2022-12-18T06:12:16;30.90;;;13.75;;
34481;SDS011;20720;48.886;9.388;2022-12-18T06:14:41;29.02;;;13.32;;
34481;SDS011;20720;48.886;9.388;2022-12-18T06:17:06;35.95;;;15.05;;
34481;SDS011;20720;48.886;9.388;2022-12-18T06:19:31;30.02;;;13.43;;
34481;SDS011;20720;48.886;9.388;2022-12-18T06:21:56;28.63;;;13.20;;
34481;SDS011;20720;48.886;9.388;2022-12-18T06:24:23;26.33;;;12.13;;
34481;SDS011;20720;48.886;9.388;2022-12-18T06:26:49;34.65;;;12.80;;
34481;SDS011;20720;48.886;9.388;2022-12-18T06:29:14;29.30;;;11.88;;
34481;SDS011;20720;48.886;9.388;2022-12-18T06:31:39;29.10;;;11.57;;
34481;SDS011;20720;48.886;9.388;2022-12-18T06:34:05;34.13;;;13.75;;
34481;SDS011;20720;48.886;9.388;2022-12-18T06:36:30;28.48;;;12.02;;
34481;SDS011;20720;48.886;9.388;2022-12-18T06:38:56;31.67;;;13.20;;
34481;SDS011;20720;48.886;9.388;2022-12-18T06:41:22;29.73;;;12.75;;
34481;SDS011;20720;48.886;9.388;2022-12-18T06:43:47;32.22;;;14.57;;
34481;SDS011;20720;48.886;9.388;2022-12-18T06:46:12;29.80;;;12.23;;
34481;SDS011;20720;48.886;9.388;2022-12-18T06:48:38;30.52;;;12.35;;
34481;SDS011;20720;48.886;9.388;2022-12-18T06:51:03;32.22;;;13.13;;
34481;SDS011;20720;48.886;9.388;2022-12-18T06:53:29;26.00;;;12.27;;
34481;SDS011;20720;48.886;9.388;2022-12-18T06:56:01;33.22;;;13.77;;
34481;SDS011;20720;48.886;9.388;2022-12-18T06:58:27;15.85;;;7.00;;
34481;SDS011;20720;48.886;9.388;2022-12-18T07:00:53;31.67;;;12.07;;
34481;SDS011;20720;48.886;9.388;2022-12-18T07:03:18;35.03;;;13.77;;
34481;SDS011;20720;48.886;9.388;2022-12-18T07:05:43;30.70;;;14.10;;
34481;SDS011;20720;48.886;9.388;2022-12-18T07:08:08;33.85;;;13.55;;
34481;SDS011;20720;48.886;9.388;2022-12-18T07:10:40;34.10;;;13.85;;
34481;SDS011;20720;48.886;9.388;2022-12-18T07:13:06;31.77;;;14.00;;
34481;SDS011;20720;48.886;9.388;2022-12-18T07:15:32;36.30;;;15.57;;
34481;SDS011;20720;48.886;9.388;2022-12-18T07:17:57;38.78;;;15.70;;
34481;SDS011;20720;48.886;9.388;2022-12-18T07:20:22;44.00;;;17.48;;
34481;SDS011;20720;48.886;9.388;2022-12-18T07:22:48;43.50;;;17.20;;
34481;SDS011;20720;48.886;9.388;2022-12-18T07:25:13;40.97;;;15.00;;
34481;SDS011;20720;48.886;9.388;2022-12-18T07:27:38;38.88;;;15.35;;
34481;SDS011;20720;48.886;9.388;2022-12-18T07:30:04;45.00;;;17.48;;
34481;SDS011;20720;48.886;9.388;2022-12-18T07:32:30;48.15;;;18.83;;
34481;SDS011;20720;48.886;9.388;2022-12-18T07:34:55;46.10;;;17.88;;
34481;SDS011;20720;48.886;9.388;2022-12-18T07:37:20;39.13;;;17.08;;
34481;SDS011;20720;48.886;9.388;2022-12-18T07:39:46;38.53;;;16.42;;
34481;SDS011;20720;48.886;9.388;2022-12-18T07:42:11;44.88;;;17.52;;
34481;SDS011;20720;48.886;9.388;2022-12-18T07:44:55;49.40;;;18.67;;
34481;SDS011;20720;48.886;9.388;2022-12-18T07:47:20;56.53;;;20.23;;
34481;SDS011;20720;48.886;9.388;2022-12-18T07:49:45;50.75;;;18.23;;
34481;SDS011;20720;48.886;9.388;2022-12-18T07:52:11;52.08;;;19.05;;
34481;SDS011;20720;48.886;9.388;2022-12-18T07:54:37;36.72;;;15.70;;
34481;SDS011;20720;48.886;9.388;2022-12-18T07:57:02;45.83;;;18.52;;
34481;SDS011;20720;48.886;9.388;2022-12-18T07:59:27;40.25;;;15.55;;
34481;SDS011;20720;48.886;9.388;2022-12-18T08:01:53;40.13;;;16.33;;
34481;SDS011;20720;48.886;9.388;2022-12-18T08:04:18;39.67;;;14.60;;
34481;SDS011;20720;48.886;9.388;2022-12-18T08:06:43;60.58;;;26.33;;
34481;SDS011;20720;48.886;9.388;2022-12-18T08:09:09;101.53;;;47.40;;
34481;SDS011;20720;48.886;9.388;2022-12-18T08:11:34;68.85;;;29.50;;
34481;SDS011;20720;48.886;9.388;2022-12-18T08:14:00;53.13;;;21.33;;
34481;SDS011;20720;48.886;9.388;2022-12-18T08:16:26;52.10;;;20.92;;
34481;SDS011;20720;48.886;9.388;2022-12-18T08:18:52;65.78;;;25.15;;
34481;SDS011;20720;48.886;9.388;2022-12-18T08:21:25;67.35;;;25.75;;
34481;SDS011;20720;48.886;9.388;2022-12-18T08:23:53;59.08;;;23.92;;
34481;SDS011;20720;48.886;9.388;2022-12-18T08:26:19;60.50;;;24.85;;
34481;SDS011;20720;48.886;9.388;2022-12-18T08:28:45;79.78;;;30.27;;
34481;SDS011;20720;48.886;9.388;2022-12-18T08:31:11;61.50;;;25.67;;
34481;SDS011;20720;48.886;9.388;2022-12-18T08:33:36;114.63;;;46.15;;
34481;SDS011;20720;48.886;9.388;2022-12-18T08:36:03;65.30;;;27.02;;
34481;SDS011;20720;48.886;9.388;2022-12-18T08:38:29;70.28;;;28.65;;
34481;SDS011;20720;48.886;9.388;2022-12-18T08:41:13;71.10;;;30.50;;
34481;SDS011;20720;48.886;9.388;2022-12-18T08:43:40;68.68;;;29.08;;
34481;SDS011;20720;48.886;9.388;2022-12-18T08:46:24;68.72;;;30.20;;
34481;SDS011;20720;48.886;9.388;2022-12-18T08:48:52;71.45;;;28.75;;
34481;SDS011;20720;48.886;9.388;2022-12-18T08:51:18;58.55;;;25.10;;
34481;SDS011;20720;48.886;9.388;2022-12-18T08:53:44;63.13;;;23.92;;
34481;SDS011;20720;48.886;9.388;2022-12-18T08:56:10;60.28;;;24.25;;
34481;SDS011;20720;48.886;9.388;2022-12-18T08:58:36;66.22;;;26.33;;
34481;SDS011;20720;48.886;9.388;2022-12-18T09:01:05;69.40;;;26.50;;
34481;SDS011;20720;48.886;9.388;2022-12-18T09:03:33;57.45;;;21.77;;
34481;SDS011;20720;48.886;9.388;2022-12-18T09:05:59;58.50;;;22.75;;
34481;SDS011;20720;48.886;9.388;2022-12-18T09:08:24;56.67;;;23.52;;
34481;SDS011;20720;48.886;9.388;2022-12-18T09:10:51;53.78;;;23.35;;
34481;SDS011;20720;48.886;9.388;2022-12-18T09:13:16;58.05;;;23.63;;
34481;SDS011;20720;48.886;9.388;2022-12-18T09:15:43;59.30;;;22.88;;
34481;SDS011;20720;48.886;9.388;2022-12-18T09:18:10;51.92;;;21.58;;
34481;SDS011;20720;48.886;9.388;2022-12-18T09:20:36;55.13;;;22.45;;
34481;SDS011;20720;48.886;9.388;2022-12-18T09:23:02;52.70;;;22.77;;
34481;SDS011;20720;48.886;9.388;2022-12-18T09:25:31;31.33;;;13.68;;
34481;SDS011;20720;48.886;9.388;2022-12-18T09:27:58;54.85;;;23.02;;
34481;SDS011;20720;48.886;9.388;2022-12-18T09:30:24;49.05;;;22.52;;
34481;SDS011;20720;48.886;9.388;2022-12-18T09:32:49;46.72;;;19.13;;
34481;SDS011;20720;48.886;9.388;2022-12-18T09:35:15;55.25;;;22.17;;
34481;SDS011;20720;48.886;9.388;2022-12-18T09:37:40;45.60;;;19.13;;
34481;SDS011;20720;48.886;9.388;2022-12-18T09:40:12;52.53;;;23.02;;
34481;SDS011;20720;48.886;9.388;2022-12-18T09:42:39;56.35;;;24.15;;
34481;SDS011;20720;48.886;9.388;2022-12-18T09:45:05;58.08;;;24.98;;
34481;SDS011;20720;48.886;9.388;2022-12-18T09:47:37;54.10;;;22.25;;
34481;SDS011;20720;48.886;9.388;2022-12-18T09:50:05;54.78;;;24.10;;
34481;SDS011;20720;48.886;9.388;2022-12-18T09:53:02;53.08;;;23.15;;
34481;SDS011;20720;48.886;9.388;2022-12-18T09:55:39;53.67;;;23.50;;
34481;SDS011;20720;48.886;9.388;2022-12-18T09:58:18;54.95;;;23.83;;
34481;SDS011;20720;48.886;9.388;2022-12-18T10:00:53;45.88;;;19.95;;
34481;SDS011;20720;48.886;9.388;2022-12-18T10:03:19;53.50;;;22.58;;
34481;SDS011;20720;48.886;9.388;2022-12-18T10:08:18;45.50;;;20.10;;
34481;SDS011;20720;48.886;9.388;2022-12-18T10:10:50;53.38;;;23.02;;
34481;SDS011;20720;48.886;9.388;2022-12-18T10:13:29;47.25;;;21.08;;
34481;SDS011;20720;48.886;9.388;2022-12-18T10:24:53;48.17;;;21.23;;
34481;SDS011;20720;48.886;9.388;2022-12-18T10:27:38;51.15;;;21.27;;
34481;SDS011;20720;48.886;9.388;2022-12-18T10:30:07;48.45;;;21.52;;
34481;SDS011;20720;48.886;9.388;2022-12-18T10:32:38;46.97;;;22.50;;
34481;SDS011;20720;48.886;9.388;2022-12-18T10:35:04;54.00;;;23.88;;
34481;SDS011;20720;48.886;9.388;2022-12-18T10:37:29;49.60;;;21.60;;
34481;SDS011;20720;48.886;9.388;2022-12-18T10:40:06;46.65;;;20.70;;
34481;SDS011;20720;48.886;9.388;2022-12-18T10:42:37;42.87;;;19.00;;
34481;SDS011;20720;48.886;9.388;2022-12-18T10:45:11;41.05;;;19.38;;
34481;SDS011;20720;48.886;9.388;2022-12-18T10:47:47;50.15;;;21.95;;
34481;SDS011;20720;48.886;9.388;2022-12-18T10:50:28;52.28;;;21.83;;
34481;SDS011;20720;48.886;9.388;2022-12-18T10:53:01;48.88;;;21.52;;
34481;SDS011;20720;48.886;9.388;2022-12-18T10:55:38;48.70;;;21.65;;
34481;SDS011;20720;48.886;9.388;2022-12-18T11:01:23;48.75;;;22.40;;
34481;SDS011;20720;48.886;9.388;2022-12-18T11:06:20;45.80;;;21.90;;
34481;SDS011;20720;48.886;9.388;2022-12-18T11:11:32;41.47;;;19.02;;
34481;SDS011;20720;48.886;9.388;2022-12-18T11:14:05;49.47;;;21.38;;
34481;SDS011;20720;48.886;9.388;2022-12-18T11:16:42;49.38;;;22.23;;
34481;SDS011;20720;48.886;9.388;2022-12-18T11:21:58;46.10;;;21.92;;
34481;SDS011;20720;48.886;9.388;2022-12-18T11:24:30;50.67;;;21.65;;
34481;SDS011;20720;48.886;9.388;2022-12-18T11:27:05;41.97;;;19.23;;
34481;SDS011;20720;48.886;9.388;2022-12-18T11:29:42;47.88;;;21.25;;
34481;SDS011;20720;48.886;9.388;2022-12-18T11:34:39;46.40;;;21.38;;
34481;SDS011;20720;48.886;9.388;2022-12-18T11:37:11;42.38;;;19.10;;
34481;SDS011;20720;48.886;9.388;2022-12-18T11:39:42;44.08;;;19.58;;
34481;SDS011;20720;48.886;9.388;2022-12-18T11:42:49;48.13;;;22.20;;
34481;SDS011;20720;48.886;9.388;2022-12-18T11:47:46;44.75;;;20.35;;
34481;SDS011;20720;48.886;9.388;2022-12-18T11:50:49;48.20;;;21.95;;
34481;SDS011;20720;48.886;9.388;2022-12-18T11:53:20;40.60;;;19.55;;
34481;SDS011;20720;48.886;9.388;2022-12-18T11:56:03;43.58;;;19.50;;
34481;SDS011;20720;48.886;9.388;2022-12-18T12:15:34;39.58;;;18.30;;
34481;SDS011;20720;48.886;9.388;2022-12-18T12:23:31;41.92;;;20.75;;
34481;SDS011;20720;48.886;9.388;2022-12-18T12:26:07;40.70;;;18.77;;
34481;SDS011;20720;48.886;9.388;2022-12-18T12:39:49;38.80;;;19.08;;
34481;SDS011;20720;48.886;9.388;2022-12-18T12:45:34;44.83;;;20.67;;
34481;SDS011;20720;48.886;9.388;2022-12-18T12:48:04;44.45;;;20.88;;
34481;SDS011;20720;48.886;9.388;2022-12-18T12:50:35;42.75;;;18.92;;
34481;SDS011;20720;48.886;9.388;2022-12-18T12:53:05;40.38;;;18.83;;
34481;SDS011;20720;48.886;9.388;2022-12-18T12:55:32;42.65;;;19.65;;
34481;SDS011;20720;48.886;9.388;2022-12-18T12:58:11;44.22;;;19.77;;
34481;SDS011;20720;48.886;9.388;2022-12-18T13:03:41;42.60;;;19.40;;
34481;SDS011;20720;48.886;9.388;2022-12-18T13:06:29;40.58;;;19.20;;
34481;SDS011;20720;48.886;9.388;2022-12-18T13:09:02;38.92;;;18.67;;
34481;SDS011;20720;48.886;9.388;2022-12-18T13:11:35;41.33;;;18.08;;
34481;SDS011;20720;48.886;9.388;2022-12-18T13:14:22;40.63;;;18.48;;
34481;SDS011;20720;48.886;9.388;2022-12-18T13:16:49;44.00;;;18.33;;
34481;SDS011;20720;48.886;9.388;2022-12-18T13:19:21;39.33;;;18.05;;
34481;SDS011;20720;48.886;9.388;2022-12-18T13:21:53;45.90;;;19.77;;
34481;SDS011;20720;48.886;9.388;2022-12-18T13:24:27;37.30;;;17.25;;
34481;SDS011;20720;48.886;9.388;2022-12-18T13:26:55;38.35;;;17.50;;
34481;SDS011;20720;48.886;9.388;2022-12-18T13:29:40;43.72;;;19.17;;
34481;SDS011;20720;48.886;9.388;2022-12-18T13:32:18;42.80;;;19.25;;
34481;SDS011;20720;48.886;9.388;2022-12-18T13:34:45;35.83;;;17.17;;
34481;SDS011;20720;48.886;9.388;2022-12-18T13:40:20;36.40;;;16.85;;
34481;SDS011;20720;48.886;9.388;2022-12-18T13:43:33;41.00;;;18.60;;
34481;SDS011;20720;48.886;9.388;2022-12-18T13:46:21;39.45;;;18.77;;
34481;SDS011;20720;48.886;9.388;2022-12-18T13:49:30;38.58;;;19.23;;
34481;SDS011;20720;48.886;9.388;2022-12-18T13:51:54;39.47;;;18.17;;
34481;SDS011;20720;48.886;9.388;2022-12-18T13:56:53;41.13;;;19.23;;
34481;SDS011;20720;48.886;9.388;2022-12-18T14:01:50;43.17;;;19.42;;
34481;SDS011;20720;48.886;9.388;2022-12-18T14:04:27;39.53;;;18.00;;
34481;SDS011;20720;48.886;9.388;2022-12-18T14:06:57;39.17;;;17.73;;
34481;SDS011;20720;48.886;9.388;2022-12-18T14:09:33;43.65;;;19.23;;
34481;SDS011;20720;48.886;9.388;2022-12-18T14:12:00;40.00;;;19.08;;
34481;SDS011;20720;48.886;9.388;2022-12-18T14:14:46;42.95;;;19.58;;
34481;SDS011;20720;48.886;9.388;2022-12-18T14:17:14;39.40;;;18.48;;
34481;SDS011;20720;48.886;9.388;2022-12-18T14:19:41;43.30;;;19.13;;
34481;SDS011;20720;48.886;9.388;2022-12-18T14:22:13;39.35;;;18.25;;
34481;SDS011;20720;48.886;9.388;2022-12-18T14:24:44;37.25;;;17.15;;
34481;SDS011;20720;48.886;9.388;2022-12-18T14:27:21;45.53;;;20.38;;
34481;SDS011;20720;48.886;9.388;2022-12-18T14:29:48;48.42;;;21.50;;
34481;SDS011;20720;48.886;9.388;2022-12-18T14:32:15;46.67;;;20.10;;
34481;SDS011;20720;48.886;9.388;2022-12-18T14:37:11;47.38;;;19.73;;
34481;SDS011;20720;48.886;9.388;2022-12-18T14:39:39;48.13;;;20.95;;
34481;SDS011;20720;48.886;9.388;2022-12-18T14:42:04;41.45;;;18.73;;
34481;SDS011;20720;48.886;9.388;2022-12-18T14:44:30;43.20;;;20.25;;
34481;SDS011;20720;48.886;9.388;2022-12-18T14:46:55;44.38;;;19.67;;
34481;SDS011;20720;48.886;9.388;2022-12-18T14:49:31;44.45;;;19.70;;
34481;SDS011;20720;48.886;9.388;2022-12-18T14:51:59;48.05;;;20.58;;
34481;SDS011;20720;48.886;9.388;2022-12-18T14:54:26;49.00;;;21.35;;
34481;SDS011;20720;48.886;9.388;2022-12-18T14:57:01;44.75;;;19.58;;
34481;SDS011;20720;48.886;9.388;2022-12-18T14:59:30;46.33;;;21.80;;
34481;SDS011;20720;48.886;9.388;2022-12-18T15:01:57;46.90;;;20.55;;
34481;SDS011;20720;48.886;9.388;2022-12-18T15:04:37;48.85;;;20.73;;
34481;SDS011;20720;48.886;9.388;2022-12-18T15:07:13;43.85;;;17.98;;
34481;SDS011;20720;48.886;9.388;2022-12-18T15:09:42;53.35;;;22.45;;
34481;SDS011;20720;48.886;9.388;2022-12-18T15:14:59;54.92;;;23.48;;
34481;SDS011;20720;48.886;9.388;2022-12-18T15:17:24;44.03;;;18.88;;
34481;SDS011;20720;48.886;9.388;2022-12-18T15:19:51;49.80;;;21.02;;
34481;SDS011;20720;48.886;9.388;2022-12-18T15:22:20;56.05;;;24.20;;
34481;SDS011;20720;48.886;9.388;2022-12-18T15:24:48;47.42;;;21.33;;
34481;SDS011;20720;48.886;9.388;2022-12-18T15:27:25;49.30;;;20.30;;
34481;SDS011;20720;48.886;9.388;2022-12-18T15:32:34;55.30;;;23.20;;
34481;SDS011;20720;48.886;9.388;2022-12-18T15:37:35;54.85;;;22.73;;
34481;SDS011;20720;48.886;9.388;2022-12-18T15:40:01;48.92;;;19.75;;
34481;SDS011;20720;48.886;9.388;2022-12-18T15:42:28;50.50;;;21.42;;
34481;SDS011;20720;48.886;9.388;2022-12-18T15:45:12;52.60;;;22.85;;
34481;SDS011;20720;48.886;9.388;2022-12-18T15:47:38;52.75;;;21.42;;
34481;SDS011;20720;48.886;9.388;2022-12-18T15:50:04;49.28;;;20.88;;
34481;SDS011;20720;48.886;9.388;2022-12-18T15:52:31;52.35;;;21.27;;
34481;SDS011;20720;48.886;9.388;2022-12-18T15:55:21;43.50;;;18.95;;
34481;SDS011;20720;48.886;9.388;2022-12-18T15:58:07;53.92;;;20.40;;
34481;SDS011;20720;48.886;9.388;2022-12-18T16:00:34;47.80;;;18.48;;
34481;SDS011;20720;48.886;9.388;2022-12-18T16:03:01;49.53;;;20.23;;
34481;SDS011;20720;48.886;9.388;2022-12-18T16:05:27;43.72;;;19.10;;
34481;SDS011;20720;48.886;9.388;2022-12-18T16:07:53;58.53;;;22.00;;
34481;SDS011;20720;48.886;9.388;2022-12-18T16:10:18;46.53;;;21.00;;
34481;SDS011;20720;48.886;9.388;2022-12-18T16:12:43;56.30;;;21.98;;
34481;SDS011;20720;48.886;9.388;2022-12-18T16:15:10;57.53;;;23.98;;
34481;SDS011;20720;48.886;9.388;2022-12-18T16:17:38;47.03;;;19.80;;
34481;SDS011;20720;48.886;9.388;2022-12-18T16:20:15;44.70;;;17.95;;
34481;SDS011;20720;48.886;9.388;2022-12-18T16:22:42;50.10;;;21.02;;
34481;SDS011;20720;48.886;9.388;2022-12-18T16:25:16;50.97;;;21.88;;
34481;SDS011;20720;48.886;9.388;2022-12-18T16:27:46;49.72;;;20.25;;
34481;SDS011;20720;48.886;9.388;2022-12-18T16:30:15;53.85;;;21.98;;